createdAt,value
2023-04-20T00:02:07.743Z,11.38
2023-04-20T00:04:35.001Z,11.36
2023-04-20T00:07:02.190Z,10.84
2023-04-20T00:09:29.307Z,11.29
2023-04-20T00:11:56.576Z,11.61
2023-04-20T00:14:23.671Z,11.56
2023-04-20T00:16:51.406Z,11.65
2023-04-20T00:19:18.789Z,11.78
2023-04-20T00:21:46.542Z,12.46
2023-04-20T00:24:13.680Z,12.73
2023-04-20T00:26:40.788Z,12.64
2023-04-20T00:29:07.843Z,12.19
2023-04-20T00:31:34.875Z,12.00
2023-04-20T00:34:01.938Z,11.88
2023-04-20T00:36:30.134Z,12.02
2023-04-20T00:38:59.710Z,11.67
2023-04-20T00:41:28.887Z,11.49
2023-04-20T00:43:56.188Z,11.69
2023-04-20T00:46:23.632Z,11.71
2023-04-20T00:48:54.258Z,11.61
2023-04-20T00:51:22.651Z,11.44
2023-04-20T00:53:49.866Z,11.91
2023-04-20T00:56:17.178Z,11.81
2023-04-20T00:58:44.269Z,11.99
2023-04-20T01:01:12.952Z,12.03
2023-04-20T01:03:40.762Z,11.19
2023-04-20T01:06:09.049Z,11.79
2023-04-20T01:08:36.183Z,11.76
2023-04-20T01:11:04.427Z,11.10
2023-04-20T01:13:31.658Z,10.99
2023-04-20T01:16:00.649Z,11.13
2023-04-20T01:18:27.912Z,10.74
2023-04-20T01:20:55.078Z,10.63
2023-04-20T01:23:22.288Z,11.24
2023-04-20T01:25:49.437Z,11.43
2023-04-20T01:28:19.593Z,10.75
2023-04-20T01:30:46.869Z,10.40
2023-04-20T01:33:13.924Z,10.55
2023-04-20T01:35:43.401Z,10.67
2023-04-20T01:38:10.551Z,10.71
2023-04-20T01:40:39.589Z,10.99
2023-04-20T01:43:06.917Z,11.05
2023-04-20T01:45:34.261Z,10.88
2023-04-20T01:48:01.798Z,10.91
2023-04-20T01:50:29.078Z,11.04
2023-04-20T01:52:56.248Z,10.89
2023-04-20T01:55:23.288Z,10.75
2023-04-20T01:57:52.771Z,10.48
2023-04-20T02:00:20.073Z,10.93
2023-04-20T02:02:47.254Z,10.80
2023-04-20T02:05:16.004Z,10.97
2023-04-20T02:07:43.398Z,10.46
2023-04-20T02:10:11.066Z,10.63
2023-04-20T02:12:38.701Z,10.83
2023-04-20T02:15:07.027Z,10.96
2023-04-20T02:17:34.233Z,10.94
2023-04-20T02:20:01.314Z,10.62
2023-04-20T02:22:28.453Z,10.60
2023-04-20T02:24:55.495Z,10.68
2023-04-20T02:27:22.611Z,10.75
2023-04-20T02:29:49.664Z,10.65
2023-04-20T02:32:16.895Z,10.69
2023-04-20T02:34:43.988Z,10.71
2023-04-20T02:37:11.105Z,10.51
2023-04-20T02:39:38.165Z,10.43
2023-04-20T02:42:05.966Z,10.92
2023-04-20T02:44:33.744Z,10.90
2023-04-20T02:47:01.892Z,10.32
2023-04-20T02:49:29.768Z,10.36
2023-04-20T02:51:57.816Z,10.59
2023-04-20T02:54:25.015Z,10.67
2023-04-20T02:56:52.324Z,10.97
2023-04-20T02:59:19.575Z,11.27
2023-04-20T03:02:07.166Z,11.05
2023-04-20T03:04:34.582Z,11.12
2023-04-20T03:07:16.649Z,11.11
2023-04-20T03:09:44.368Z,12.10
2023-04-20T03:12:24.933Z,12.30
2023-04-20T03:14:58.320Z,12.16
2023-04-20T03:17:38.316Z,11.76
2023-04-20T03:20:09.269Z,12.03
2023-04-20T03:22:37.363Z,12.01
2023-04-20T03:25:06.586Z,12.19
2023-04-20T03:27:55.449Z,11.97
2023-04-20T03:30:22.551Z,11.72
2023-04-20T03:32:55.819Z,12.28
2023-04-20T03:35:23.120Z,12.44
2023-04-20T03:37:50.367Z,12.72
2023-04-20T03:40:17.503Z,12.80
2023-04-20T03:42:44.578Z,12.45
2023-04-20T03:45:12.193Z,12.60
2023-04-20T03:47:39.335Z,11.72
2023-04-20T03:50:07.107Z,11.95
2023-04-20T03:52:34.390Z,11.87
2023-04-20T03:55:05.351Z,12.43
2023-04-20T03:57:34.113Z,11.92
2023-04-20T04:00:04.793Z,12.10
2023-04-20T04:02:45.843Z,12.19
2023-04-20T04:05:16.068Z,12.54
2023-04-20T04:07:43.206Z,12.71
2023-04-20T04:10:12.068Z,12.40
2023-04-20T04:12:39.561Z,12.02
2023-04-20T04:15:08.210Z,11.95
2023-04-20T04:17:41.451Z,11.82
2023-04-20T04:20:09.280Z,11.93
2023-04-20T04:22:37.308Z,12.83
2023-04-20T04:25:23.443Z,13.40
2023-04-20T04:27:51.576Z,13.93
2023-04-20T04:30:20.098Z,14.02
2023-04-20T04:32:49.266Z,14.27
2023-04-20T04:35:17.258Z,14.46
2023-04-20T04:37:44.377Z,14.26
2023-04-20T04:40:11.820Z,14.14
2023-04-20T04:42:39.619Z,13.67
2023-04-20T04:45:10.488Z,14.17
2023-04-20T04:47:43.920Z,13.93
2023-04-20T04:50:11.679Z,13.26
2023-04-20T04:52:38.978Z,13.40
2023-04-20T04:55:09.211Z,13.85
2023-04-20T04:57:36.476Z,13.93
2023-04-20T05:00:08.067Z,13.95
2023-04-20T05:02:35.986Z,13.44
2023-04-20T05:05:03.422Z,14.03
2023-04-20T05:07:30.771Z,14.44
2023-04-20T05:09:57.811Z,14.41
2023-04-20T05:12:25.918Z,14.52
2023-04-20T05:14:53.574Z,14.37
2023-04-20T05:17:20.926Z,14.75
2023-04-20T05:19:48.072Z,13.68
2023-04-20T05:22:15.481Z,13.29
2023-04-20T05:24:42.648Z,13.03
2023-04-20T05:27:09.801Z,12.87
2023-04-20T05:29:38.152Z,12.47
2023-04-20T05:32:05.496Z,12.12
2023-04-20T05:34:32.735Z,12.22
2023-04-20T05:37:00.140Z,11.66
2023-04-20T05:39:27.293Z,11.57
2023-04-20T05:41:54.351Z,11.55
2023-04-20T05:44:21.409Z,11.53
2023-04-20T05:46:48.493Z,11.56
2023-04-20T05:49:15.968Z,11.66
2023-04-20T05:51:43.191Z,11.68
2023-04-20T05:54:11.227Z,11.55
2023-04-20T05:56:38.407Z,11.48
2023-04-20T05:59:05.691Z,11.44
2023-04-20T06:01:32.809Z,11.40
2023-04-20T06:04:00.136Z,11.59
2023-04-20T06:06:28.088Z,11.54
2023-04-20T06:08:55.329Z,11.70
2023-04-20T06:11:22.509Z,12.05
2023-04-20T06:13:49.581Z,12.75
2023-04-20T06:16:16.801Z,12.74
2023-04-20T06:18:44.201Z,13.16
2023-04-20T06:21:11.627Z,12.89
2023-04-20T06:23:38.874Z,13.23
2023-04-20T06:26:08.892Z,13.48
2023-04-20T06:28:39.366Z,13.75
2023-04-20T06:31:06.671Z,13.58
2023-04-20T06:33:33.991Z,13.44
2023-04-20T06:36:01.130Z,14.02
2023-04-20T06:38:28.442Z,14.05
2023-04-20T06:40:57.623Z,13.69
2023-04-20T06:43:24.751Z,13.56
2023-04-20T06:45:51.850Z,13.96
2023-04-20T06:48:31.406Z,14.19
2023-04-20T06:50:59.616Z,14.24
2023-04-20T06:53:26.683Z,13.37
2023-04-20T06:55:57.130Z,13.39
2023-04-20T06:58:24.468Z,13.06
2023-04-20T07:00:51.548Z,12.64
2023-04-20T07:03:19.514Z,12.30
2023-04-20T07:05:47.043Z,12.21
2023-04-20T07:08:16.147Z,12.24
2023-04-20T07:10:43.484Z,12.17
2023-04-20T07:13:10.722Z,12.18
2023-04-20T07:15:37.928Z,12.43
2023-04-20T07:18:05.098Z,12.62
2023-04-20T07:20:32.496Z,12.77
2023-04-20T07:22:59.696Z,13.30
2023-04-20T07:25:27.432Z,13.31
2023-04-20T07:27:54.585Z,13.51
2023-04-20T07:30:21.699Z,13.65
2023-04-20T07:32:49.468Z,13.79
2023-04-20T07:35:16.704Z,13.44
2023-04-20T07:37:43.970Z,13.40
2023-04-20T07:40:11.497Z,13.48
2023-04-20T07:42:38.655Z,13.26
2023-04-20T07:45:07.192Z,14.00
2023-04-20T07:47:35.590Z,13.43
2023-04-20T07:50:03.845Z,12.96
2023-04-20T07:52:31.011Z,12.76
2023-04-20T07:54:59.469Z,12.75
2023-04-20T07:57:27.412Z,12.72
2023-04-20T07:59:54.513Z,12.62
2023-04-20T08:02:21.678Z,12.76
2023-04-20T08:04:50.024Z,13.01
2023-04-20T08:07:17.962Z,13.24
2023-04-20T08:09:45.262Z,13.76
2023-04-20T08:12:12.409Z,13.94
2023-04-20T08:14:40.655Z,13.83
2023-04-20T08:17:08.562Z,13.92
2023-04-20T08:19:36.279Z,14.01
2023-04-20T08:22:04.549Z,13.93
2023-04-20T08:24:31.958Z,13.85
2023-04-20T08:26:59.470Z,13.55
2023-04-20T08:29:26.804Z,13.32
2023-04-20T08:31:53.927Z,13.23
2023-04-20T08:34:21.058Z,13.21
2023-04-20T08:36:48.328Z,13.24
2023-04-20T08:39:20.731Z,13.43
2023-04-20T08:41:48.245Z,13.60
2023-04-20T08:44:15.708Z,13.94
2023-04-20T08:46:47.192Z,14.00
2023-04-20T08:49:17.976Z,14.09
2023-04-20T08:51:46.513Z,14.91
2023-04-20T08:54:14.597Z,15.95
2023-04-20T08:56:46.768Z,15.14
2023-04-20T08:59:14.709Z,14.80
2023-04-20T09:01:43.266Z,13.93
2023-04-20T09:04:21.373Z,13.41
2023-04-20T09:06:51.575Z,13.68
2023-04-20T09:09:20.200Z,13.54
2023-04-20T09:11:48.044Z,13.53
2023-04-20T09:14:17.194Z,14.11
2023-04-20T09:17:02.009Z,14.37
2023-04-20T09:19:30.710Z,14.29
2023-04-20T09:21:59.916Z,14.29
2023-04-20T09:24:35.317Z,14.04
2023-04-20T09:27:14.634Z,14.09
2023-04-20T09:29:41.841Z,14.00
2023-04-20T09:32:09.110Z,14.33
2023-04-20T09:34:45.728Z,14.74
2023-04-20T09:37:16.718Z,14.95
2023-04-20T09:39:45.676Z,14.81
2023-04-20T09:42:14.057Z,14.89
2023-04-20T09:44:41.515Z,14.02
2023-04-20T09:47:09.804Z,14.39
2023-04-20T09:49:45.860Z,14.26
2023-04-20T09:52:16.261Z,14.24
2023-04-20T09:54:44.805Z,13.90
2023-04-20T09:57:13.389Z,13.73
2023-04-20T09:59:43.829Z,13.83
2023-04-20T10:02:12.692Z,14.61
2023-04-20T10:04:55.795Z,14.75
2023-04-20T10:07:27.395Z,13.81
2023-04-20T10:10:24.205Z,13.92
2023-04-20T10:12:53.577Z,14.43
2023-04-20T10:15:24.485Z,14.25
2023-04-20T10:17:51.783Z,14.14
2023-04-20T10:20:21.539Z,13.99
2023-04-20T10:22:48.749Z,14.04
2023-04-20T10:25:19.532Z,13.80
2023-04-20T10:27:58.039Z,13.68
2023-04-20T10:30:27.136Z,13.69
2023-04-20T10:33:07.025Z,13.89
2023-04-20T10:35:55.320Z,14.19
2023-04-20T10:38:36.148Z,14.18
2023-04-20T10:41:13.502Z,14.31
2023-04-20T10:43:43.720Z,14.37
2023-04-20T10:46:15.478Z,14.12
2023-04-20T10:49:01.442Z,14.36
2023-04-20T10:51:28.775Z,14.19
2023-04-20T10:54:06.841Z,14.56
2023-04-20T10:56:55.337Z,14.69
2023-04-20T10:59:25.084Z,14.39
2023-04-20T11:01:52.670Z,14.52
2023-04-20T11:04:31.281Z,14.45
2023-04-20T11:07:07.295Z,14.37
2023-04-20T11:09:35.837Z,14.27
2023-04-20T11:12:08.212Z,14.10
2023-04-20T11:14:38.462Z,14.62
2023-04-20T11:17:06.567Z,14.22
2023-04-20T11:19:35.963Z,14.29
2023-04-20T11:22:06.730Z,14.45
2023-04-20T11:24:35.955Z,14.49
2023-04-20T11:27:05.052Z,14.62
2023-04-20T11:29:34.258Z,14.82
2023-04-20T11:32:09.775Z,15.33
2023-04-20T11:34:38.673Z,15.19
2023-04-20T11:37:11.111Z,15.62
2023-04-20T11:39:38.558Z,14.64
2023-04-20T11:42:06.565Z,14.39
2023-04-20T11:44:36.759Z,14.51
2023-04-20T11:47:04.149Z,14.26
2023-04-20T11:49:31.576Z,14.44
2023-04-20T11:51:58.770Z,14.39
2023-04-20T11:54:27.438Z,14.46
2023-04-20T11:56:54.511Z,14.08
2023-04-20T11:59:21.958Z,14.27
2023-04-20T12:01:49.058Z,14.22
2023-04-20T12:04:16.635Z,13.94
2023-04-20T12:06:44.212Z,13.88
2023-04-20T12:09:11.462Z,14.11
2023-04-20T12:11:38.575Z,14.41
2023-04-20T12:14:05.737Z,14.67
2023-04-20T12:16:32.919Z,14.19
2023-04-20T12:19:00.122Z,14.24
2023-04-20T12:21:27.520Z,14.35
2023-04-20T12:23:54.592Z,14.52
2023-04-20T12:26:23.771Z,14.80
2023-04-20T12:28:54.213Z,14.72
2023-04-20T12:31:21.598Z,14.68
2023-04-20T12:33:48.672Z,14.84
2023-04-20T12:36:15.737Z,14.75
2023-04-20T12:38:42.920Z,14.86
2023-04-20T12:41:14.877Z,14.89
2023-04-20T12:43:42.024Z,14.73
2023-04-20T12:46:09.146Z,14.61
2023-04-20T12:48:36.314Z,15.22
2023-04-20T12:51:03.696Z,15.09
2023-04-20T12:53:30.826Z,15.22
2023-04-20T12:56:01.357Z,14.80
2023-04-20T12:58:28.861Z,14.42
2023-04-20T13:00:56.324Z,14.54
2023-04-20T13:03:23.842Z,14.48
2023-04-20T13:05:51.320Z,14.28
2023-04-20T13:08:19.893Z,14.07
2023-04-20T13:10:47.151Z,14.09
2023-04-20T13:13:14.319Z,13.93
2023-04-20T13:15:41.481Z,13.72
2023-04-20T13:18:10.011Z,13.84
2023-04-20T13:20:37.427Z,14.02
2023-04-20T13:23:04.759Z,14.15
2023-04-20T13:25:33.566Z,14.01
2023-04-20T13:28:02.105Z,13.69
2023-04-20T13:30:29.403Z,13.93
2023-04-20T13:32:56.612Z,13.66
2023-04-20T13:35:24.567Z,13.51
2023-04-20T13:37:51.895Z,13.71
2023-04-20T13:40:19.020Z,14.41
2023-04-20T13:42:46.103Z,14.81
2023-04-20T13:45:13.624Z,14.39
2023-04-20T13:47:41.047Z,14.45
2023-04-20T13:50:09.491Z,14.35
2023-04-20T13:52:37.365Z,14.07
2023-04-20T13:55:05.539Z,14.22
2023-04-20T13:57:32.782Z,14.62
2023-04-20T14:00:01.299Z,14.58
2023-04-20T14:02:33.431Z,14.18
2023-04-20T14:05:00.938Z,14.55
2023-04-20T14:07:27.992Z,14.48
2023-04-20T14:09:56.701Z,14.19
2023-04-20T14:12:24.026Z,14.66
2023-04-20T14:14:51.219Z,14.35
2023-04-20T14:17:18.320Z,14.27
2023-04-20T14:19:45.597Z,14.24
2023-04-20T14:22:12.667Z,14.30
2023-04-20T14:24:40.834Z,14.65
2023-04-20T14:27:07.925Z,14.61
2023-04-20T14:29:34.983Z,14.32
2023-04-20T14:32:02.107Z,14.22
2023-04-20T14:34:29.213Z,13.82
2023-04-20T14:36:56.366Z,13.81
2023-04-20T14:39:26.531Z,13.82
2023-04-20T14:41:53.709Z,14.11
2023-04-20T14:44:20.947Z,14.17
2023-04-20T14:46:48.249Z,14.31
2023-04-20T14:49:15.517Z,14.29
2023-04-20T14:51:42.636Z,13.96
2023-04-20T14:54:09.771Z,14.13
2023-04-20T14:56:36.881Z,14.19
2023-04-20T14:59:04.008Z,14.08
2023-04-20T15:01:31.112Z,14.15
2023-04-20T15:03:58.521Z,14.48
2023-04-20T15:06:25.874Z,14.35
2023-04-20T15:08:54.730Z,14.39
2023-04-20T15:11:21.970Z,13.96
2023-04-20T15:13:49.580Z,13.79
2023-04-20T15:16:16.786Z,13.84
2023-04-20T15:18:43.896Z,13.63
2023-04-20T15:21:11.143Z,13.58
2023-04-20T15:23:38.310Z,13.92
2023-04-20T15:26:06.984Z,13.59
2023-04-20T15:28:34.037Z,13.49
2023-04-20T15:31:01.112Z,13.81
2023-04-20T15:33:28.192Z,13.64
2023-04-20T15:35:55.353Z,13.84
2023-04-20T15:38:22.468Z,13.97
2023-04-20T15:40:54.265Z,13.89
2023-04-20T15:43:21.794Z,13.93
2023-04-20T15:45:50.025Z,13.81
2023-04-20T15:48:17.806Z,13.59
2023-04-20T15:50:44.994Z,13.53
2023-04-20T15:53:12.432Z,13.34
2023-04-20T15:55:39.776Z,13.59
2023-04-20T15:58:06.934Z,13.90
2023-04-20T16:00:34.011Z,14.10
2023-04-20T16:03:02.271Z,13.89
2023-04-20T16:05:29.688Z,13.78
2023-04-20T16:07:56.949Z,13.14
2023-04-20T16:10:24.438Z,13.70
2023-04-20T16:12:51.548Z,13.94
2023-04-20T16:15:18.877Z,13.48
2023-04-20T16:17:46.197Z,13.55
2023-04-20T16:20:14.031Z,13.61
2023-04-20T16:22:41.233Z,13.72
2023-04-20T16:25:09.731Z,13.75
2023-04-20T16:27:36.946Z,14.10
2023-04-20T16:30:04.455Z,14.59
2023-04-20T16:32:31.664Z,14.40
2023-04-20T16:34:58.806Z,13.67
2023-04-20T16:37:26.048Z,13.53
2023-04-20T16:39:53.075Z,13.63
2023-04-20T16:42:20.171Z,13.56
2023-04-20T16:44:47.247Z,13.46
2023-04-20T16:47:14.294Z,13.45
2023-04-20T16:49:41.418Z,13.23
2023-04-20T16:52:10.608Z,13.07
2023-04-20T16:54:37.703Z,13.19
2023-04-20T16:57:04.771Z,13.17
2023-04-20T16:59:31.889Z,13.39
2023-04-20T17:01:59.086Z,13.30
2023-04-20T17:04:26.331Z,12.92
2023-04-20T17:06:53.605Z,13.03
2023-04-20T17:09:21.194Z,13.17
2023-04-20T17:11:48.457Z,13.19
2023-04-20T17:14:16.209Z,13.22
2023-04-20T17:16:43.430Z,13.24
2023-04-20T17:19:10.559Z,12.80
2023-04-20T17:21:37.952Z,13.09
2023-04-20T17:24:05.156Z,12.97
2023-04-20T17:26:32.213Z,12.56
2023-04-20T17:28:59.339Z,12.63
2023-04-20T17:31:26.637Z,12.58
2023-04-20T17:33:53.820Z,12.37
2023-04-20T17:36:20.977Z,12.74
2023-04-20T17:38:48.138Z,12.69
2023-04-20T17:41:15.297Z,12.95
2023-04-20T17:43:42.389Z,12.79
2023-04-20T17:46:09.597Z,12.94
2023-04-20T17:48:36.758Z,13.10
2023-04-20T17:51:04.045Z,13.32
2023-04-20T17:53:31.127Z,13.00
2023-04-20T17:55:58.154Z,12.74
2023-04-20T17:58:25.257Z,13.08
2023-04-20T18:00:52.345Z,13.06
2023-04-20T18:03:20.276Z,12.65
2023-04-20T18:05:47.518Z,12.92
2023-04-20T18:08:15.647Z,12.76
2023-04-20T18:10:42.709Z,12.82
2023-04-20T18:13:10.107Z,12.63
2023-04-20T18:15:37.239Z,12.73
2023-04-20T18:18:04.496Z,12.79
2023-04-20T18:20:32.602Z,12.76
2023-04-20T18:22:59.857Z,12.72
2023-04-20T18:25:27.106Z,12.40
2023-04-20T18:27:54.263Z,12.52
2023-04-20T18:30:21.462Z,12.33
2023-04-20T18:32:48.655Z,12.32
2023-04-20T18:35:15.877Z,12.63
2023-04-20T18:37:42.997Z,12.78
2023-04-20T18:40:10.572Z,12.45
2023-04-20T18:42:37.698Z,12.72
2023-04-20T18:45:06.311Z,12.77
2023-04-20T18:47:33.854Z,12.57
2023-04-20T18:50:01.021Z,12.40
2023-04-20T18:52:28.177Z,12.55
2023-04-20T18:54:55.606Z,12.23
2023-04-20T18:57:26.344Z,12.35
2023-04-20T18:59:53.572Z,12.71
2023-04-20T19:02:20.907Z,12.37
2023-04-20T19:04:48.097Z,12.01
2023-04-20T19:07:15.348Z,12.02
2023-04-20T19:09:42.602Z,12.46
2023-04-20T19:12:09.817Z,12.31
2023-04-20T19:14:37.083Z,12.37
2023-04-20T19:17:06.628Z,12.31
2023-04-20T19:19:33.990Z,12.13
2023-04-20T19:22:01.889Z,12.21
2023-04-20T19:24:29.299Z,12.21
2023-04-20T19:26:56.389Z,12.07
2023-04-20T19:29:23.476Z,12.46
2023-04-20T19:31:50.589Z,12.15
2023-04-20T19:34:18.016Z,12.00
2023-04-20T19:36:45.421Z,12.08
2023-04-20T19:39:12.521Z,12.44
2023-04-20T19:41:39.674Z,12.18
2023-04-20T19:44:06.807Z,11.92
2023-04-20T19:46:34.269Z,11.79
2023-04-20T19:49:01.590Z,11.77
2023-04-20T19:51:29.084Z,11.93
2023-04-20T19:53:56.605Z,11.83
2023-04-20T19:56:23.664Z,12.34
2023-04-20T19:58:50.720Z,13.00
2023-04-20T20:01:18.179Z,13.54
2023-04-20T20:03:45.443Z,13.72
2023-04-20T20:06:12.721Z,13.70
2023-04-20T20:08:39.932Z,13.85
2023-04-20T20:11:07.111Z,13.71
2023-04-20T20:13:34.161Z,13.75
2023-04-20T20:16:01.276Z,13.41
2023-04-20T20:18:28.419Z,13.21
2023-04-20T20:20:55.517Z,13.41
2023-04-20T20:23:22.679Z,13.58
2023-04-20T20:25:49.753Z,13.60
2023-04-20T20:28:16.830Z,13.53
2023-04-20T20:30:45.451Z,13.52
2023-04-20T20:33:13.200Z,13.48
2023-04-20T20:35:40.986Z,13.41
2023-04-20T20:38:08.933Z,13.40
2023-04-20T20:40:36.211Z,13.40
2023-04-20T20:43:06.609Z,13.59
2023-04-20T20:45:33.738Z,13.44
2023-04-20T20:48:01.246Z,13.19
2023-04-20T20:50:28.489Z,12.51
2023-04-20T20:52:55.534Z,12.21
2023-04-20T20:55:22.690Z,12.20
2023-04-20T20:57:49.764Z,11.98
2023-04-20T21:00:17.017Z,12.07
2023-04-20T21:02:44.640Z,12.66
2023-04-20T21:05:11.860Z,13.00
2023-04-20T21:07:39.429Z,13.07
2023-04-20T21:10:06.911Z,13.23
2023-04-20T21:12:34.131Z,12.75
2023-04-20T21:15:01.363Z,12.14
2023-04-20T21:17:28.598Z,12.20
2023-04-20T21:19:55.681Z,12.21
2023-04-20T21:22:23.306Z,12.43
2023-04-20T21:24:50.638Z,12.90
2023-04-20T21:27:17.732Z,13.07
2023-04-20T21:29:44.778Z,13.05
2023-04-20T21:32:11.852Z,13.03
2023-04-20T21:34:38.996Z,12.69
2023-04-20T21:37:06.153Z,13.18
2023-04-20T21:39:33.525Z,13.07
2023-04-20T21:42:01.583Z,13.19
2023-04-20T21:44:28.917Z,13.11
2023-04-20T21:46:56.064Z,12.68
2023-04-20T21:49:23.299Z,12.42
2023-04-20T21:51:50.326Z,12.22
2023-04-20T21:54:17.376Z,11.94
2023-04-20T21:56:44.539Z,12.28
2023-04-20T21:59:11.595Z,12.02
2023-04-20T22:01:38.855Z,11.65
2023-04-20T22:04:06.160Z,11.83
2023-04-20T22:06:33.436Z,11.86
2023-04-20T22:09:00.444Z,11.54
2023-04-20T22:11:28.027Z,11.23
2023-04-20T22:13:57.326Z,10.94
2023-04-20T22:16:24.517Z,11.26
2023-04-20T22:18:51.704Z,11.55
2023-04-20T22:21:18.741Z,11.79
2023-04-20T22:23:45.844Z,12.00
2023-04-20T22:26:12.965Z,12.31
2023-04-20T22:28:40.092Z,12.21
2023-04-20T22:31:07.179Z,12.26
2023-04-20T22:33:34.480Z,12.52
2023-04-20T22:36:01.549Z,12.59
2023-04-20T22:38:28.639Z,12.44
2023-04-20T22:40:55.691Z,12.28
2023-04-20T22:43:22.872Z,12.48
2023-04-20T22:45:49.949Z,12.80
2023-04-20T22:48:17.669Z,12.63
2023-04-20T22:50:44.733Z,12.33
2023-04-20T22:53:13.638Z,12.20
2023-04-20T22:55:42.014Z,12.46
2023-04-20T22:58:09.224Z,12.50
2023-04-20T23:00:36.324Z,12.37
2023-04-20T23:03:03.581Z,12.61
2023-04-20T23:05:30.796Z,12.75
2023-04-20T23:07:57.818Z,12.29
2023-04-20T23:10:28.839Z,12.15
2023-04-20T23:12:56.124Z,11.75
2023-04-20T23:15:23.240Z,11.60
2023-04-20T23:17:50.950Z,11.55
2023-04-20T23:20:18.143Z,11.52
2023-04-20T23:22:45.532Z,11.46
2023-04-20T23:25:12.631Z,11.52
2023-04-20T23:27:39.703Z,11.57
2023-04-20T23:30:07.474Z,11.47
2023-04-20T23:32:34.692Z,11.81
2023-04-20T23:35:01.957Z,11.70
2023-04-20T23:37:29.076Z,11.33
2023-04-20T23:39:56.166Z,11.18
2023-04-20T23:42:23.208Z,11.27
2023-04-20T23:44:50.461Z,11.06
2023-04-20T23:47:17.769Z,10.89
2023-04-20T23:49:44.792Z,10.92
2023-04-20T23:52:11.845Z,10.98
2023-04-20T23:54:38.941Z,10.68
2023-04-20T23:57:06.043Z,11.00
2023-04-20T23:59:34.564Z,11.03
